sensor_id;sensor_type;location;lat;lon;timestamp;P1;durP1;ratioP1;P2;durP2;ratioP2
32365;SDS011;18837;46.832;16.838;2022-07-29T00:01:55;3.50;;;3.20;;
32365;SDS011;18837;46.832;16.838;2022-07-29T00:04:20;3.83;;;3.40;;
32365;SDS011;18837;46.832;16.838;2022-07-29T00:06:46;4.37;;;3.10;;
32365;SDS011;18837;46.832;16.838;2022-07-29T00:09:12;3.63;;;3.33;;
32365;SDS011;18837;46.832;16.838;2022-07-29T00:11:37;3.30;;;3.00;;
32365;SDS011;18837;46.832;16.838;2022-07-29T00:14:03;3.40;;;3.10;;
32365;SDS011;18837;46.832;16.838;2022-07-29T00:16:29;3.43;;;3.17;;
32365;SDS011;18837;46.832;16.838;2022-07-29T00:21:50;3.83;;;3.03;;
32365;SDS011;18837;46.832;16.838;2022-07-29T00:24:16;2.90;;;2.70;;
32365;SDS011;18837;46.832;16.838;2022-07-29T00:26:41;3.57;;;3.27;;
32365;SDS011;18837;46.832;16.838;2022-07-29T00:29:07;3.17;;;2.97;;
32365;SDS011;18837;46.832;16.838;2022-07-29T00:31:33;3.80;;;3.50;;
32365;SDS011;18837;46.832;16.838;2022-07-29T00:33:58;3.23;;;2.90;;
32365;SDS011;18837;46.832;16.838;2022-07-29T00:36:30;3.00;;;2.80;;
32365;SDS011;18837;46.832;16.838;2022-07-29T00:38:56;3.80;;;3.50;;
32365;SDS011;18837;46.832;16.838;2022-07-29T00:41:22;3.50;;;3.20;;
32365;SDS011;18837;46.832;16.838;2022-07-29T00:43:47;3.80;;;3.50;;
32365;SDS011;18837;46.832;16.838;2022-07-29T00:46:13;2.90;;;2.70;;
32365;SDS011;18837;46.832;16.838;2022-07-29T00:48:39;3.13;;;2.93;;
32365;SDS011;18837;46.832;16.838;2022-07-29T00:51:05;4.20;;;3.30;;
32365;SDS011;18837;46.832;16.838;2022-07-29T00:59:51;3.60;;;3.30;;
32365;SDS011;18837;46.832;16.838;2022-07-29T01:02:17;3.27;;;3.03;;
32365;SDS011;18837;46.832;16.838;2022-07-29T01:04:42;3.23;;;3.03;;
32365;SDS011;18837;46.832;16.838;2022-07-29T01:07:08;3.03;;;2.83;;
32365;SDS011;18837;46.832;16.838;2022-07-29T01:09:35;3.17;;;2.97;;
32365;SDS011;18837;46.832;16.838;2022-07-29T01:12:08;3.50;;;3.20;;
32365;SDS011;18837;46.832;16.838;2022-07-29T01:14:34;3.57;;;3.27;;
32365;SDS011;18837;46.832;16.838;2022-07-29T01:17:10;3.23;;;2.97;;
32365;SDS011;18837;46.832;16.838;2022-07-29T01:25:09;3.70;;;3.40;;
32365;SDS011;18837;46.832;16.838;2022-07-29T01:34:21;3.73;;;3.43;;
32365;SDS011;18837;46.832;16.838;2022-07-29T01:36:57;3.20;;;3.00;;
32365;SDS011;18837;46.832;16.838;2022-07-29T01:39:28;4.20;;;3.37;;
32365;SDS011;18837;46.832;16.838;2022-07-29T01:42:10;3.30;;;3.10;;
32365;SDS011;18837;46.832;16.838;2022-07-29T01:50:53;3.57;;;3.27;;
32365;SDS011;18837;46.832;16.838;2022-07-29T01:53:31;3.57;;;3.27;;
32365;SDS011;18837;46.832;16.838;2022-07-29T01:56:00;3.80;;;3.17;;
32365;SDS011;18837;46.832;16.838;2022-07-29T01:58:27;3.80;;;3.50;;
32365;SDS011;18837;46.832;16.838;2022-07-29T02:01:13;3.50;;;3.30;;
32365;SDS011;18837;46.832;16.838;2022-07-29T02:06:38;3.60;;;3.30;;
32365;SDS011;18837;46.832;16.838;2022-07-29T02:09:05;3.40;;;3.10;;
32365;SDS011;18837;46.832;16.838;2022-07-29T02:11:33;3.83;;;3.43;;
32365;SDS011;18837;46.832;16.838;2022-07-29T02:14:02;3.57;;;3.27;;
32365;SDS011;18837;46.832;16.838;2022-07-29T02:16:30;5.07;;;3.17;;
32365;SDS011;18837;46.832;16.838;2022-07-29T02:18:58;4.37;;;3.40;;
32365;SDS011;18837;46.832;16.838;2022-07-29T02:21:26;3.30;;;3.07;;
32365;SDS011;18837;46.832;16.838;2022-07-29T02:23:55;3.63;;;3.33;;
32365;SDS011;18837;46.832;16.838;2022-07-29T02:26:25;3.53;;;3.20;;
32365;SDS011;18837;46.832;16.838;2022-07-29T02:28:54;3.57;;;3.10;;
32365;SDS011;18837;46.832;16.838;2022-07-29T02:31:23;3.70;;;3.40;;
32365;SDS011;18837;46.832;16.838;2022-07-29T02:33:51;3.80;;;3.30;;
32365;SDS011;18837;46.832;16.838;2022-07-29T02:36:22;3.20;;;3.00;;
32365;SDS011;18837;46.832;16.838;2022-07-29T02:39:02;3.60;;;3.30;;
32365;SDS011;18837;46.832;16.838;2022-07-29T02:44:28;3.40;;;3.20;;
32365;SDS011;18837;46.832;16.838;2022-07-29T02:46:59;3.57;;;3.27;;
32365;SDS011;18837;46.832;16.838;2022-07-29T02:49:35;3.70;;;3.40;;
32365;SDS011;18837;46.832;16.838;2022-07-29T02:52:37;3.63;;;3.33;;
32365;SDS011;18837;46.832;16.838;2022-07-29T02:57:42;3.57;;;3.27;;
32365;SDS011;18837;46.832;16.838;2022-07-29T03:00:13;3.33;;;3.03;;
32365;SDS011;18837;46.832;16.838;2022-07-29T03:02:41;3.70;;;3.40;;
32365;SDS011;18837;46.832;16.838;2022-07-29T03:05:10;3.30;;;3.00;;
32365;SDS011;18837;46.832;16.838;2022-07-29T03:07:47;3.80;;;3.50;;
32365;SDS011;18837;46.832;16.838;2022-07-29T03:10:18;3.63;;;3.33;;
32365;SDS011;18837;46.832;16.838;2022-07-29T03:12:43;3.27;;;2.97;;
32365;SDS011;18837;46.832;16.838;2022-07-29T03:15:10;3.73;;;3.43;;
32365;SDS011;18837;46.832;16.838;2022-07-29T03:17:36;2.90;;;2.70;;
32365;SDS011;18837;46.832;16.838;2022-07-29T03:20:02;3.40;;;3.10;;
32365;SDS011;18837;46.832;16.838;2022-07-29T03:22:29;3.73;;;3.00;;
32365;SDS011;18837;46.832;16.838;2022-07-29T03:24:55;3.27;;;3.07;;
32365;SDS011;18837;46.832;16.838;2022-07-29T03:27:21;4.43;;;3.20;;
32365;SDS011;18837;46.832;16.838;2022-07-29T03:29:46;3.23;;;2.93;;
32365;SDS011;18837;46.832;16.838;2022-07-29T03:32:12;3.97;;;3.10;;
32365;SDS011;18837;46.832;16.838;2022-07-29T03:34:38;3.33;;;3.13;;
32365;SDS011;18837;46.832;16.838;2022-07-29T03:37:04;3.23;;;2.93;;
32365;SDS011;18837;46.832;16.838;2022-07-29T03:39:31;3.10;;;2.90;;
32365;SDS011;18837;46.832;16.838;2022-07-29T03:42:16;3.13;;;2.93;;
32365;SDS011;18837;46.832;16.838;2022-07-29T03:44:45;3.77;;;3.47;;
32365;SDS011;18837;46.832;16.838;2022-07-29T03:47:14;4.83;;;3.30;;
32365;SDS011;18837;46.832;16.838;2022-07-29T03:49:42;3.27;;;3.00;;
32365;SDS011;18837;46.832;16.838;2022-07-29T03:52:12;3.43;;;3.13;;
32365;SDS011;18837;46.832;16.838;2022-07-29T03:54:38;3.70;;;3.30;;
32365;SDS011;18837;46.832;16.838;2022-07-29T04:02:47;3.50;;;3.20;;
32365;SDS011;18837;46.832;16.838;2022-07-29T04:05:13;3.93;;;3.53;;
32365;SDS011;18837;46.832;16.838;2022-07-29T04:07:40;3.90;;;3.60;;
32365;SDS011;18837;46.832;16.838;2022-07-29T04:10:08;3.50;;;3.20;;
32365;SDS011;18837;46.832;16.838;2022-07-29T04:12:34;3.77;;;3.47;;
32365;SDS011;18837;46.832;16.838;2022-07-29T04:15:01;3.80;;;3.50;;
32365;SDS011;18837;46.832;16.838;2022-07-29T04:17:34;4.00;;;3.60;;
32365;SDS011;18837;46.832;16.838;2022-07-29T04:19:59;3.57;;;3.27;;
32365;SDS011;18837;46.832;16.838;2022-07-29T04:22:25;3.40;;;3.10;;
32365;SDS011;18837;46.832;16.838;2022-07-29T04:24:51;3.93;;;3.30;;
32365;SDS011;18837;46.832;16.838;2022-07-29T04:27:16;4.30;;;3.90;;
32365;SDS011;18837;46.832;16.838;2022-07-29T04:29:42;3.70;;;3.40;;
32365;SDS011;18837;46.832;16.838;2022-07-29T04:37:39;3.50;;;3.20;;
32365;SDS011;18837;46.832;16.838;2022-07-29T04:40:05;3.80;;;3.50;;
32365;SDS011;18837;46.832;16.838;2022-07-29T04:42:31;3.53;;;3.23;;
32365;SDS011;18837;46.832;16.838;2022-07-29T04:44:57;4.13;;;3.70;;
32365;SDS011;18837;46.832;16.838;2022-07-29T04:47:23;3.93;;;3.53;;
32365;SDS011;18837;46.832;16.838;2022-07-29T04:49:48;4.20;;;3.90;;
32365;SDS011;18837;46.832;16.838;2022-07-29T04:52:14;3.77;;;3.47;;
32365;SDS011;18837;46.832;16.838;2022-07-29T04:54:40;3.50;;;3.20;;
32365;SDS011;18837;46.832;16.838;2022-07-29T04:57:05;3.73;;;3.43;;
32365;SDS011;18837;46.832;16.838;2022-07-29T04:59:31;4.17;;;3.77;;
32365;SDS011;18837;46.832;16.838;2022-07-29T05:01:57;3.67;;;3.37;;
32365;SDS011;18837;46.832;16.838;2022-07-29T05:04:22;3.57;;;3.27;;
32365;SDS011;18837;46.832;16.838;2022-07-29T05:06:48;3.67;;;3.37;;
32365;SDS011;18837;46.832;16.838;2022-07-29T05:09:14;3.50;;;3.20;;
32365;SDS011;18837;46.832;16.838;2022-07-29T05:11:39;3.27;;;3.07;;
32365;SDS011;18837;46.832;16.838;2022-07-29T05:14:05;4.17;;;3.23;;
32365;SDS011;18837;46.832;16.838;2022-07-29T05:16:31;3.77;;;3.47;;
32365;SDS011;18837;46.832;16.838;2022-07-29T05:18:57;4.10;;;3.70;;
32365;SDS011;18837;46.832;16.838;2022-07-29T05:21:22;4.43;;;3.47;;
32365;SDS011;18837;46.832;16.838;2022-07-29T05:23:48;3.53;;;3.30;;
32365;SDS011;18837;46.832;16.838;2022-07-29T05:26:14;3.83;;;3.47;;
32365;SDS011;18837;46.832;16.838;2022-07-29T05:28:39;3.63;;;3.33;;
32365;SDS011;18837;46.832;16.838;2022-07-29T05:31:05;3.70;;;3.23;;
32365;SDS011;18837;46.832;16.838;2022-07-29T05:33:30;4.27;;;3.50;;
32365;SDS011;18837;46.832;16.838;2022-07-29T05:36:09;4.20;;;3.77;;
32365;SDS011;18837;46.832;16.838;2022-07-29T05:38:34;4.67;;;3.30;;
32365;SDS011;18837;46.832;16.838;2022-07-29T05:41:01;5.23;;;3.97;;
32365;SDS011;18837;46.832;16.838;2022-07-29T05:43:27;7.27;;;4.20;;
32365;SDS011;18837;46.832;16.838;2022-07-29T05:45:53;7.77;;;3.87;;
32365;SDS011;18837;46.832;16.838;2022-07-29T05:48:19;7.30;;;4.57;;
32365;SDS011;18837;46.832;16.838;2022-07-29T05:50:51;6.40;;;4.00;;
32365;SDS011;18837;46.832;16.838;2022-07-29T05:56:12;7.47;;;4.20;;
32365;SDS011;18837;46.832;16.838;2022-07-29T05:58:37;5.60;;;3.90;;
32365;SDS011;18837;46.832;16.838;2022-07-29T06:01:03;5.30;;;4.07;;
32365;SDS011;18837;46.832;16.838;2022-07-29T06:03:29;6.57;;;4.43;;
32365;SDS011;18837;46.832;16.838;2022-07-29T06:05:55;5.33;;;4.43;;
32365;SDS011;18837;46.832;16.838;2022-07-29T06:08:21;7.47;;;3.73;;
32365;SDS011;18837;46.832;16.838;2022-07-29T06:10:52;4.33;;;3.80;;
32365;SDS011;18837;46.832;16.838;2022-07-29T06:13:17;7.37;;;4.20;;
32365;SDS011;18837;46.832;16.838;2022-07-29T06:15:43;4.60;;;4.20;;
32365;SDS011;18837;46.832;16.838;2022-07-29T06:18:09;4.40;;;3.73;;
32365;SDS011;18837;46.832;16.838;2022-07-29T06:20:35;5.47;;;4.23;;
32365;SDS011;18837;46.832;16.838;2022-07-29T06:23:01;4.00;;;3.70;;
32365;SDS011;18837;46.832;16.838;2022-07-29T06:25:41;4.53;;;3.50;;
32365;SDS011;18837;46.832;16.838;2022-07-29T06:31:42;5.03;;;3.80;;
32365;SDS011;18837;46.832;16.838;2022-07-29T06:34:07;4.63;;;4.23;;
32365;SDS011;18837;46.832;16.838;2022-07-29T06:36:34;6.50;;;4.17;;
32365;SDS011;18837;46.832;16.838;2022-07-29T06:39:01;5.07;;;4.23;;
32365;SDS011;18837;46.832;16.838;2022-07-29T06:41:32;6.13;;;3.87;;
32365;SDS011;18837;46.832;16.838;2022-07-29T06:43:58;4.57;;;3.83;;
32365;SDS011;18837;46.832;16.838;2022-07-29T06:46:30;4.37;;;3.90;;
32365;SDS011;18837;46.832;16.838;2022-07-29T06:48:56;4.93;;;3.90;;
32365;SDS011;18837;46.832;16.838;2022-07-29T06:51:21;6.77;;;4.20;;
32365;SDS011;18837;46.832;16.838;2022-07-29T06:53:47;5.87;;;4.00;;
32365;SDS011;18837;46.832;16.838;2022-07-29T06:56:13;4.60;;;3.67;;
32365;SDS011;18837;46.832;16.838;2022-07-29T06:58:39;5.40;;;4.17;;
32365;SDS011;18837;46.832;16.838;2022-07-29T07:01:23;3.90;;;3.50;;
32365;SDS011;18837;46.832;16.838;2022-07-29T07:06:35;4.10;;;3.70;;
32365;SDS011;18837;46.832;16.838;2022-07-29T07:09:02;4.13;;;3.73;;
32365;SDS011;18837;46.832;16.838;2022-07-29T07:11:28;4.33;;;3.70;;
32365;SDS011;18837;46.832;16.838;2022-07-29T07:13:54;4.10;;;3.73;;
32365;SDS011;18837;46.832;16.838;2022-07-29T07:16:20;4.60;;;3.90;;
32365;SDS011;18837;46.832;16.838;2022-07-29T07:21:30;4.13;;;3.27;;
32365;SDS011;18837;46.832;16.838;2022-07-29T07:23:57;3.93;;;3.47;;
32365;SDS011;18837;46.832;16.838;2022-07-29T07:26:24;3.73;;;3.30;;
32365;SDS011;18837;46.832;16.838;2022-07-29T07:28:50;3.40;;;3.10;;
32365;SDS011;18837;46.832;16.838;2022-07-29T07:31:16;3.83;;;3.47;;
32365;SDS011;18837;46.832;16.838;2022-07-29T07:33:42;4.10;;;3.50;;
32365;SDS011;18837;46.832;16.838;2022-07-29T07:41:47;4.07;;;3.73;;
32365;SDS011;18837;46.832;16.838;2022-07-29T07:44:12;4.33;;;3.20;;
32365;SDS011;18837;46.832;16.838;2022-07-29T07:46:38;3.73;;;3.40;;
32365;SDS011;18837;46.832;16.838;2022-07-29T07:49:04;3.60;;;3.30;;
32365;SDS011;18837;46.832;16.838;2022-07-29T07:51:29;3.97;;;3.47;;
32365;SDS011;18837;46.832;16.838;2022-07-29T07:54:04;3.93;;;3.53;;
32365;SDS011;18837;46.832;16.838;2022-07-29T07:56:30;4.27;;;3.27;;
32365;SDS011;18837;46.832;16.838;2022-07-29T07:58:56;3.77;;;3.47;;
32365;SDS011;18837;46.832;16.838;2022-07-29T08:01:21;4.17;;;3.77;;
32365;SDS011;18837;46.832;16.838;2022-07-29T08:03:48;3.67;;;3.37;;
32365;SDS011;18837;46.832;16.838;2022-07-29T08:06:14;3.63;;;3.33;;
32365;SDS011;18837;46.832;16.838;2022-07-29T08:08:50;3.77;;;3.47;;
32365;SDS011;18837;46.832;16.838;2022-07-29T08:11:34;4.23;;;3.40;;
32365;SDS011;18837;46.832;16.838;2022-07-29T08:14:12;4.80;;;3.73;;
32365;SDS011;18837;46.832;16.838;2022-07-29T08:16:38;3.57;;;3.27;;
32365;SDS011;18837;46.832;16.838;2022-07-29T08:19:08;3.70;;;3.40;;
32365;SDS011;18837;46.832;16.838;2022-07-29T08:21:34;3.87;;;3.50;;
32365;SDS011;18837;46.832;16.838;2022-07-29T08:24:00;3.73;;;3.30;;
32365;SDS011;18837;46.832;16.838;2022-07-29T08:27:04;3.20;;;3.00;;
32365;SDS011;18837;46.832;16.838;2022-07-29T08:29:48;3.63;;;3.33;;
32365;SDS011;18837;46.832;16.838;2022-07-29T08:32:13;3.53;;;3.23;;
32365;SDS011;18837;46.832;16.838;2022-07-29T08:34:39;3.30;;;3.10;;
32365;SDS011;18837;46.832;16.838;2022-07-29T08:37:05;3.90;;;3.20;;
32365;SDS011;18837;46.832;16.838;2022-07-29T08:39:31;3.23;;;2.93;;
32365;SDS011;18837;46.832;16.838;2022-07-29T08:41:56;3.73;;;3.40;;
32365;SDS011;18837;46.832;16.838;2022-07-29T08:50:07;4.00;;;3.17;;
32365;SDS011;18837;46.832;16.838;2022-07-29T08:52:38;3.63;;;3.33;;
32365;SDS011;18837;46.832;16.838;2022-07-29T08:55:05;3.30;;;3.03;;
32365;SDS011;18837;46.832;16.838;2022-07-29T08:57:33;3.30;;;3.10;;
32365;SDS011;18837;46.832;16.838;2022-07-29T09:00:00;3.33;;;2.80;;
32365;SDS011;18837;46.832;16.838;2022-07-29T09:05:16;3.27;;;2.97;;
32365;SDS011;18837;46.832;16.838;2022-07-29T09:07:43;3.33;;;2.80;;
32365;SDS011;18837;46.832;16.838;2022-07-29T09:10:12;3.10;;;2.87;;
32365;SDS011;18837;46.832;16.838;2022-07-29T09:12:38;2.97;;;2.77;;
32365;SDS011;18837;46.832;16.838;2022-07-29T09:15:05;3.57;;;3.27;;
32365;SDS011;18837;46.832;16.838;2022-07-29T09:20:41;5.03;;;3.00;;
32365;SDS011;18837;46.832;16.838;2022-07-29T09:24:15;5.63;;;2.83;;
32365;SDS011;18837;46.832;16.838;2022-07-29T09:26:43;5.37;;;3.60;;
32365;SDS011;18837;46.832;16.838;2022-07-29T09:31:40;3.47;;;3.13;;
32365;SDS011;18837;46.832;16.838;2022-07-29T09:34:07;2.83;;;2.63;;
32365;SDS011;18837;46.832;16.838;2022-07-29T09:36:47;4.00;;;3.13;;
32365;SDS011;18837;46.832;16.838;2022-07-29T09:39:34;3.40;;;3.10;;
32365;SDS011;18837;46.832;16.838;2022-07-29T09:42:10;4.87;;;2.73;;
32365;SDS011;18837;46.832;16.838;2022-07-29T09:44:43;5.47;;;3.30;;
32365;SDS011;18837;46.832;16.838;2022-07-29T09:47:11;5.27;;;2.90;;
32365;SDS011;18837;46.832;16.838;2022-07-29T09:49:56;3.30;;;3.00;;
32365;SDS011;18837;46.832;16.838;2022-07-29T09:52:31;3.37;;;2.70;;
32365;SDS011;18837;46.832;16.838;2022-07-29T09:58:30;3.50;;;3.20;;
32365;SDS011;18837;46.832;16.838;2022-07-29T10:00:58;3.50;;;2.57;;
32365;SDS011;18837;46.832;16.838;2022-07-29T10:03:24;3.67;;;2.70;;
32365;SDS011;18837;46.832;16.838;2022-07-29T10:06:07;3.10;;;2.83;;
32365;SDS011;18837;46.832;16.838;2022-07-29T10:08:33;3.00;;;2.70;;
32365;SDS011;18837;46.832;16.838;2022-07-29T10:11:09;2.70;;;2.50;;
32365;SDS011;18837;46.832;16.838;2022-07-29T10:13:44;2.90;;;2.70;;
32365;SDS011;18837;46.832;16.838;2022-07-29T10:16:11;3.00;;;2.80;;
32365;SDS011;18837;46.832;16.838;2022-07-29T10:18:38;3.20;;;2.90;;
32365;SDS011;18837;46.832;16.838;2022-07-29T10:21:04;3.20;;;2.90;;
32365;SDS011;18837;46.832;16.838;2022-07-29T10:23:32;2.90;;;2.70;;
32365;SDS011;18837;46.832;16.838;2022-07-29T10:25:59;4.10;;;2.90;;
32365;SDS011;18837;46.832;16.838;2022-07-29T10:28:45;3.20;;;2.83;;
32365;SDS011;18837;46.832;16.838;2022-07-29T10:31:26;3.40;;;3.10;;
32365;SDS011;18837;46.832;16.838;2022-07-29T10:34:13;2.97;;;2.73;;
32365;SDS011;18837;46.832;16.838;2022-07-29T10:36:52;3.73;;;2.80;;
32365;SDS011;18837;46.832;16.838;2022-07-29T10:44:40;3.20;;;2.90;;
32365;SDS011;18837;46.832;16.838;2022-07-29T10:47:28;3.73;;;3.13;;
32365;SDS011;18837;46.832;16.838;2022-07-29T10:49:58;2.93;;;2.70;;
32365;SDS011;18837;46.832;16.838;2022-07-29T10:52:36;2.80;;;2.60;;
32365;SDS011;18837;46.832;16.838;2022-07-29T10:55:34;3.30;;;3.00;;
32365;SDS011;18837;46.832;16.838;2022-07-29T10:58:22;3.13;;;2.90;;
32365;SDS011;18837;46.832;16.838;2022-07-29T11:00:50;3.03;;;2.73;;
32365;SDS011;18837;46.832;16.838;2022-07-29T11:09:34;3.10;;;2.90;;
32365;SDS011;18837;46.832;16.838;2022-07-29T11:12:00;2.73;;;2.50;;
32365;SDS011;18837;46.832;16.838;2022-07-29T11:17:20;3.30;;;3.00;;
32365;SDS011;18837;46.832;16.838;2022-07-29T11:19:46;3.13;;;2.80;;
32365;SDS011;18837;46.832;16.838;2022-07-29T11:22:12;2.87;;;2.50;;
32365;SDS011;18837;46.832;16.838;2022-07-29T11:25:13;3.10;;;2.90;;
32365;SDS011;18837;46.832;16.838;2022-07-29T11:27:39;2.93;;;2.73;;
32365;SDS011;18837;46.832;16.838;2022-07-29T11:30:05;3.07;;;2.77;;
32365;SDS011;18837;46.832;16.838;2022-07-29T11:32:37;3.27;;;3.07;;
32365;SDS011;18837;46.832;16.838;2022-07-29T11:35:14;3.00;;;2.73;;
32365;SDS011;18837;46.832;16.838;2022-07-29T11:44:02;3.03;;;2.73;;
32365;SDS011;18837;46.832;16.838;2022-07-29T11:46:47;10.00;;;3.17;;
32365;SDS011;18837;46.832;16.838;2022-07-29T11:49:24;9.80;;;3.23;;
32365;SDS011;18837;46.832;16.838;2022-07-29T11:51:55;9.03;;;3.70;;
32365;SDS011;18837;46.832;16.838;2022-07-29T11:54:26;5.30;;;3.03;;
32365;SDS011;18837;46.832;16.838;2022-07-29T11:57:09;6.37;;;2.97;;
32365;SDS011;18837;46.832;16.838;2022-07-29T11:59:39;6.67;;;3.17;;
32365;SDS011;18837;46.832;16.838;2022-07-29T12:02:06;4.53;;;3.27;;
32365;SDS011;18837;46.832;16.838;2022-07-29T12:04:33;3.43;;;2.70;;
32365;SDS011;18837;46.832;16.838;2022-07-29T12:07:15;4.57;;;2.90;;
32365;SDS011;18837;46.832;16.838;2022-07-29T12:09:48;4.93;;;2.83;;
32365;SDS011;18837;46.832;16.838;2022-07-29T12:15:22;4.37;;;2.57;;
32365;SDS011;18837;46.832;16.838;2022-07-29T12:17:50;4.10;;;2.83;;
32365;SDS011;18837;46.832;16.838;2022-07-29T12:20:24;5.00;;;2.93;;
32365;SDS011;18837;46.832;16.838;2022-07-29T12:22:52;4.33;;;2.77;;
32365;SDS011;18837;46.832;16.838;2022-07-29T12:25:22;4.33;;;2.63;;
32365;SDS011;18837;46.832;16.838;2022-07-29T12:27:59;5.17;;;2.93;;
32365;SDS011;18837;46.832;16.838;2022-07-29T12:33:17;4.17;;;2.90;;
32365;SDS011;18837;46.832;16.838;2022-07-29T12:35:46;5.13;;;3.13;;
32365;SDS011;18837;46.832;16.838;2022-07-29T12:38:13;3.10;;;2.70;;
32365;SDS011;18837;46.832;16.838;2022-07-29T12:40:40;2.97;;;2.67;;
32365;SDS011;18837;46.832;16.838;2022-07-29T12:51:37;3.30;;;2.87;;
32365;SDS011;18837;46.832;16.838;2022-07-29T12:56:32;3.43;;;3.13;;
32365;SDS011;18837;46.832;16.838;2022-07-29T12:58:58;3.30;;;2.80;;
32365;SDS011;18837;46.832;16.838;2022-07-29T13:01:24;5.03;;;3.20;;
32365;SDS011;18837;46.832;16.838;2022-07-29T13:03:58;3.43;;;3.20;;
32365;SDS011;18837;46.832;16.838;2022-07-29T13:09:22;3.77;;;2.80;;
32365;SDS011;18837;46.832;16.838;2022-07-29T13:11:49;3.03;;;2.73;;
32365;SDS011;18837;46.832;16.838;2022-07-29T13:17:03;3.10;;;2.80;;
32365;SDS011;18837;46.832;16.838;2022-07-29T13:19:51;2.80;;;2.60;;
32365;SDS011;18837;46.832;16.838;2022-07-29T13:23:10;3.07;;;2.87;;
32365;SDS011;18837;46.832;16.838;2022-07-29T13:25:45;4.27;;;3.00;;
32365;SDS011;18837;46.832;16.838;2022-07-29T13:28:11;2.93;;;2.73;;
32365;SDS011;18837;46.832;16.838;2022-07-29T13:30:37;3.50;;;3.00;;
32365;SDS011;18837;46.832;16.838;2022-07-29T13:33:04;3.13;;;2.83;;
32365;SDS011;18837;46.832;16.838;2022-07-29T13:35:30;2.80;;;2.60;;
32365;SDS011;18837;46.832;16.838;2022-07-29T13:37:55;3.00;;;2.80;;
32365;SDS011;18837;46.832;16.838;2022-07-29T13:40:26;2.97;;;2.77;;
32365;SDS011;18837;46.832;16.838;2022-07-29T13:42:54;3.10;;;2.83;;
32365;SDS011;18837;46.832;16.838;2022-07-29T13:45:19;3.10;;;2.73;;
32365;SDS011;18837;46.832;16.838;2022-07-29T13:47:45;2.63;;;2.43;;
32365;SDS011;18837;46.832;16.838;2022-07-29T13:50:11;3.20;;;2.90;;
32365;SDS011;18837;46.832;16.838;2022-07-29T13:52:36;2.87;;;2.67;;
32365;SDS011;18837;46.832;16.838;2022-07-29T13:55:21;4.23;;;2.70;;
32365;SDS011;18837;46.832;16.838;2022-07-29T14:00:33;3.50;;;3.00;;
32365;SDS011;18837;46.832;16.838;2022-07-29T14:02:59;3.17;;;2.87;;
32365;SDS011;18837;46.832;16.838;2022-07-29T14:05:24;2.93;;;2.73;;
32365;SDS011;18837;46.832;16.838;2022-07-29T14:07:50;2.80;;;2.60;;
32365;SDS011;18837;46.832;16.838;2022-07-29T14:10:16;3.00;;;2.80;;
32365;SDS011;18837;46.832;16.838;2022-07-29T14:12:41;2.90;;;2.70;;
32365;SDS011;18837;46.832;16.838;2022-07-29T14:15:22;3.20;;;2.90;;
32365;SDS011;18837;46.832;16.838;2022-07-29T14:17:48;3.00;;;2.80;;
32365;SDS011;18837;46.832;16.838;2022-07-29T14:20:14;3.00;;;2.70;;
32365;SDS011;18837;46.832;16.838;2022-07-29T14:22:40;2.77;;;2.57;;
32365;SDS011;18837;46.832;16.838;2022-07-29T14:25:07;2.67;;;2.47;;
32365;SDS011;18837;46.832;16.838;2022-07-29T14:27:33;2.70;;;2.50;;
32365;SDS011;18837;46.832;16.838;2022-07-29T14:30:17;2.63;;;2.43;;
32365;SDS011;18837;46.832;16.838;2022-07-29T14:35:31;3.00;;;2.70;;
32365;SDS011;18837;46.832;16.838;2022-07-29T14:37:57;2.80;;;2.60;;
32365;SDS011;18837;46.832;16.838;2022-07-29T14:40:23;2.60;;;2.40;;
32365;SDS011;18837;46.832;16.838;2022-07-29T14:42:50;3.13;;;2.90;;
32365;SDS011;18837;46.832;16.838;2022-07-29T14:45:16;2.70;;;2.50;;
32365;SDS011;18837;46.832;16.838;2022-07-29T14:47:42;3.20;;;2.37;;
32365;SDS011;18837;46.832;16.838;2022-07-29T14:50:23;2.70;;;2.50;;
32365;SDS011;18837;46.832;16.838;2022-07-29T14:52:51;2.67;;;2.43;;
32365;SDS011;18837;46.832;16.838;2022-07-29T14:55:17;2.70;;;2.50;;
32365;SDS011;18837;46.832;16.838;2022-07-29T14:57:44;2.70;;;2.50;;
32365;SDS011;18837;46.832;16.838;2022-07-29T15:00:10;2.70;;;2.50;;
32365;SDS011;18837;46.832;16.838;2022-07-29T15:02:36;2.90;;;2.70;;
32365;SDS011;18837;46.832;16.838;2022-07-29T15:08:09;3.10;;;2.90;;
32365;SDS011;18837;46.832;16.838;2022-07-29T15:10:34;3.87;;;2.83;;
32365;SDS011;18837;46.832;16.838;2022-07-29T15:13:00;4.73;;;2.60;;
32365;SDS011;18837;46.832;16.838;2022-07-29T15:15:27;2.80;;;2.60;;
32365;SDS011;18837;46.832;16.838;2022-07-29T15:17:53;3.03;;;2.80;;
32365;SDS011;18837;46.832;16.838;2022-07-29T15:20:19;2.97;;;2.67;;
32365;SDS011;18837;46.832;16.838;2022-07-29T15:25:37;3.40;;;2.90;;
32365;SDS011;18837;46.832;16.838;2022-07-29T15:28:03;3.30;;;3.10;;
32365;SDS011;18837;46.832;16.838;2022-07-29T15:30:35;2.80;;;2.60;;
32365;SDS011;18837;46.832;16.838;2022-07-29T15:33:05;2.93;;;2.70;;
32365;SDS011;18837;46.832;16.838;2022-07-29T15:35:35;3.63;;;2.60;;
32365;SDS011;18837;46.832;16.838;2022-07-29T15:38:07;3.97;;;2.70;;
32365;SDS011;18837;46.832;16.838;2022-07-29T15:43:36;2.97;;;2.77;;
32365;SDS011;18837;46.832;16.838;2022-07-29T15:46:02;3.17;;;2.90;;
32365;SDS011;18837;46.832;16.838;2022-07-29T15:48:46;2.80;;;2.60;;
32365;SDS011;18837;46.832;16.838;2022-07-29T15:51:11;3.00;;;2.80;;
32365;SDS011;18837;46.832;16.838;2022-07-29T15:53:37;3.53;;;2.53;;
32365;SDS011;18837;46.832;16.838;2022-07-29T15:56:03;3.30;;;3.00;;
32365;SDS011;18837;46.832;16.838;2022-07-29T15:58:34;3.50;;;2.50;;
32365;SDS011;18837;46.832;16.838;2022-07-29T16:00:59;2.93;;;2.63;;
32365;SDS011;18837;46.832;16.838;2022-07-29T16:03:25;3.30;;;3.00;;
32365;SDS011;18837;46.832;16.838;2022-07-29T16:05:51;3.53;;;3.00;;
32365;SDS011;18837;46.832;16.838;2022-07-29T16:08:17;5.00;;;2.83;;
32365;SDS011;18837;46.832;16.838;2022-07-29T16:10:42;2.93;;;2.43;;
32365;SDS011;18837;46.832;16.838;2022-07-29T16:13:13;3.20;;;3.00;;
32365;SDS011;18837;46.832;16.838;2022-07-29T16:15:39;2.93;;;2.73;;
32365;SDS011;18837;46.832;16.838;2022-07-29T16:20:49;2.90;;;2.60;;
32365;SDS011;18837;46.832;16.838;2022-07-29T16:23:15;4.83;;;2.63;;
32365;SDS011;18837;46.832;16.838;2022-07-29T16:25:41;8.90;;;3.07;;
32365;SDS011;18837;46.832;16.838;2022-07-29T16:28:07;3.33;;;3.00;;
32365;SDS011;18837;46.832;16.838;2022-07-29T16:30:33;4.33;;;2.63;;
32365;SDS011;18837;46.832;16.838;2022-07-29T16:33:12;9.90;;;3.03;;
32365;SDS011;18837;46.832;16.838;2022-07-29T16:35:38;6.00;;;3.27;;
32365;SDS011;18837;46.832;16.838;2022-07-29T16:38:04;3.93;;;2.80;;
32365;SDS011;18837;46.832;16.838;2022-07-29T16:40:30;4.07;;;3.03;;
32365;SDS011;18837;46.832;16.838;2022-07-29T16:42:56;4.30;;;2.67;;
32365;SDS011;18837;46.832;16.838;2022-07-29T16:45:23;7.87;;;3.33;;
32365;SDS011;18837;46.832;16.838;2022-07-29T16:53:40;5.07;;;3.07;;
32365;SDS011;18837;46.832;16.838;2022-07-29T16:56:06;5.17;;;3.20;;
32365;SDS011;18837;46.832;16.838;2022-07-29T16:58:33;3.40;;;2.70;;
32365;SDS011;18837;46.832;16.838;2022-07-29T17:00:59;3.17;;;2.87;;
32365;SDS011;18837;46.832;16.838;2022-07-29T17:03:25;3.80;;;2.90;;
32365;SDS011;18837;46.832;16.838;2022-07-29T17:05:51;3.30;;;2.90;;
32365;SDS011;18837;46.832;16.838;2022-07-29T17:08:20;4.20;;;3.20;;
32365;SDS011;18837;46.832;16.838;2022-07-29T17:10:46;4.70;;;2.87;;
32365;SDS011;18837;46.832;16.838;2022-07-29T17:13:12;3.33;;;3.00;;
32365;SDS011;18837;46.832;16.838;2022-07-29T17:15:37;3.70;;;3.00;;